createdAt,value
2019-04-28T05:39:40.312Z,100850.30
2019-04-28T05:44:45.658Z,100850.55
2019-04-28T05:49:52.482Z,100856.84
2019-04-28T05:55:03.042Z,100867.34
2019-04-28T06:00:19.803Z,100883.82
2019-04-28T06:05:24.870Z,100887.37
2019-04-28T06:10:30.474Z,100893.62
2019-04-28T06:15:35.706Z,100906.48
2019-04-28T06:20:40.911Z,100896.12
2019-04-28T06:25:46.401Z,100899.77
2019-04-28T06:30:51.598Z,100921.87
2019-04-28T06:35:56.802Z,100910.88
2019-04-28T06:41:02.107Z,100909.48
2019-04-28T06:46:07.542Z,100914.22
2019-04-28T06:51:12.646Z,100926.79
2019-04-28T06:56:18.872Z,100937.23
2019-04-28T07:01:24.071Z,100943.94
2019-04-28T07:06:29.588Z,100952.81
2019-04-28T07:11:34.815Z,100964.25
2019-04-28T07:16:39.975Z,100968.95
2019-04-28T07:21:46.711Z,100970.12
2019-04-28T07:26:51.947Z,100987.12
2019-04-28T07:31:57.157Z,100984.77
2019-04-28T07:37:02.342Z,100993.72
2019-04-28T07:42:08.062Z,101005.91
2019-04-28T07:47:13.285Z,101012.86
2019-04-28T07:52:20.235Z,101016.61
2019-04-28T07:57:25.464Z,101024.44
2019-04-28T08:02:30.675Z,101021.16
2019-04-28T08:07:35.797Z,101026.77
2019-04-28T08:12:40.950Z,101027.90
2019-04-28T08:17:46.465Z,101023.45
2019-04-28T08:22:51.618Z,101026.02
2019-04-28T08:27:56.987Z,101030.19
2019-04-28T08:33:09.732Z,101035.81
2019-04-28T08:38:14.834Z,101049.13
2019-04-28T08:43:20.243Z,101049.83
2019-04-28T08:48:25.474Z,101054.64
2019-04-28T08:53:30.693Z,101054.13
2019-04-28T08:58:35.835Z,101060.96
2019-04-28T09:03:41.014Z,101056.06
2019-04-28T09:08:46.304Z,101067.55
2019-04-28T09:13:51.808Z,101070.48
2019-04-28T09:18:57.097Z,101078.59
2019-04-28T09:24:02.236Z,101080.66
2019-04-28T09:29:07.660Z,101077.00
2019-04-28T09:34:13.060Z,101073.89
2019-04-28T09:39:19.886Z,101082.11
2019-04-28T09:44:25.158Z,101087.69
2019-04-28T09:49:30.238Z,101097.70
2019-04-28T09:54:35.268Z,101097.53
2019-04-28T09:59:40.324Z,101099.25
2019-04-28T10:04:45.447Z,101103.19
2019-04-28T10:09:50.692Z,101101.93
2019-04-28T10:14:55.943Z,101105.78
2019-04-28T10:20:01.107Z,101118.69
2019-04-28T10:25:09.793Z,101117.54
2019-04-28T10:30:15.457Z,101121.40
2019-04-28T10:35:20.713Z,101114.58
2019-04-28T10:40:37.939Z,101115.06
2019-04-28T10:45:44.929Z,101119.74
2019-04-28T10:50:51.896Z,101128.27
2019-04-28T10:55:57.127Z,101114.25
2019-04-28T11:01:02.364Z,101116.81
2019-04-28T11:06:07.596Z,101124.49
2019-04-28T11:11:17.236Z,101123.28
2019-04-28T11:16:25.589Z,101125.13
2019-04-28T11:21:30.813Z,101136.55
2019-04-28T11:26:36.151Z,101140.89
2019-04-28T11:31:41.648Z,101141.16
2019-04-28T11:36:46.975Z,101148.38
2019-04-28T11:41:52.132Z,101136.16
2019-04-28T11:46:57.258Z,101127.52
2019-04-28T11:52:02.461Z,101134.55
2019-04-28T11:57:07.611Z,101136.38
2019-04-28T12:02:12.735Z,101124.09
2019-04-28T12:07:17.966Z,101126.55
2019-04-28T12:12:30.870Z,101132.86
2019-04-28T12:17:53.988Z,101126.95
2019-04-28T12:22:59.232Z,101111.63
2019-04-28T12:28:04.348Z,101104.42
2019-04-28T12:33:09.918Z,101109.67
2019-04-28T12:38:15.142Z,101125.58
2019-04-28T12:43:20.416Z,101120.55
2019-04-28T12:48:25.755Z,101136.16
2019-04-28T12:53:31.048Z,101122.22
2019-04-28T12:58:36.291Z,101128.42
2019-04-28T13:03:45.966Z,101145.73
2019-04-28T13:08:51.170Z,101156.91
2019-04-28T13:13:56.680Z,101163.90
2019-04-28T13:19:02.141Z,101174.77
2019-04-28T13:24:07.689Z,101171.64
2019-04-28T13:29:13.297Z,101180.97
2019-04-28T13:34:20.047Z,101189.19
2019-04-28T13:39:33.041Z,101185.73
2019-04-28T13:44:56.477Z,101187.64
2019-04-28T13:50:03.424Z,101184.92
2019-04-28T13:55:28.908Z,101190.08
2019-04-28T14:00:38.200Z,101181.89
2019-04-28T14:05:45.150Z,101189.34
2019-04-28T14:10:50.294Z,101187.86
2019-04-28T14:15:55.749Z,101195.41
2019-04-28T14:21:01.272Z,101199.36
2019-04-28T14:26:06.692Z,101190.66
2019-04-28T14:31:11.988Z,101186.83
2019-04-28T14:36:17.231Z,101190.42
2019-04-28T14:41:22.627Z,101193.19
2019-04-28T14:46:27.855Z,101210.53
2019-04-28T14:51:33.623Z,101214.88
2019-04-28T14:56:38.795Z,101215.38
2019-04-28T15:02:02.018Z,101218.15
2019-04-28T15:07:11.884Z,101224.27
2019-04-28T15:12:17.091Z,101219.38
2019-04-28T15:17:22.305Z,101209.52
2019-04-28T15:22:27.658Z,101202.70
2019-04-28T15:27:32.911Z,101186.59
2019-04-28T15:32:38.217Z,101196.16
2019-04-28T15:37:43.507Z,101203.51
2019-04-28T15:42:48.840Z,101199.27
2019-04-28T15:47:55.120Z,101197.54
2019-04-28T15:53:00.670Z,101204.42
2019-04-28T15:58:23.934Z,101201.91
2019-04-28T16:03:29.213Z,101205.16
2019-04-28T16:08:35.594Z,101207.13
2019-04-28T16:13:40.646Z,101205.61
2019-04-28T16:18:46.043Z,101211.97
2019-04-28T16:23:51.524Z,101223.77
2019-04-28T16:28:57.048Z,101229.27
2019-04-28T16:34:02.344Z,101229.30
2019-04-28T16:39:08.994Z,101240.45
2019-04-28T16:44:16.027Z,101245.88
2019-04-28T16:49:21.272Z,101259.36
2019-04-28T16:54:26.467Z,101251.69
2019-04-28T16:59:41.976Z,101261.70
2019-04-28T17:04:48.713Z,101264.13
2019-04-28T17:09:53.901Z,101265.69
2019-04-28T17:14:59.126Z,101262.88
2019-04-28T17:20:06.696Z,101260.20
2019-04-28T17:25:12.873Z,101266.95
2019-04-28T17:30:21.391Z,101265.66
2019-04-28T17:35:26.788Z,101262.75
2019-04-28T17:40:32.996Z,101262.45
2019-04-28T17:45:38.384Z,101251.00
2019-04-28T17:50:45.347Z,101244.27
2019-04-28T17:55:50.419Z,101247.95
2019-04-28T18:00:57.317Z,101236.30
2019-04-28T18:06:18.858Z,101250.92
2019-04-28T18:11:24.113Z,101254.76
2019-04-28T18:16:46.786Z,101265.44
2019-04-28T18:21:52.629Z,101269.00
2019-04-28T18:26:57.839Z,101278.25
2019-04-28T18:32:07.443Z,101291.06
2019-04-28T18:37:17.112Z,101302.53
2019-04-28T18:42:23.955Z,101308.48
2019-04-28T18:47:29.050Z,101310.78
2019-04-28T18:52:35.722Z,101324.22
2019-04-28T18:57:40.909Z,101315.09
2019-04-28T19:02:47.887Z,101319.91
2019-04-28T19:08:10.984Z,101317.45
2019-04-28T19:13:23.937Z,101329.38
2019-04-28T19:18:33.700Z,101333.97
2019-04-28T19:23:39.997Z,101339.38
2019-04-28T19:28:45.191Z,101335.20
2019-04-28T19:33:50.502Z,101338.95
2019-04-28T19:39:03.076Z,101340.38
2019-04-28T19:44:02.846Z,101346.00
2019-04-28T19:49:08.070Z,101343.00
2019-04-28T19:54:13.774Z,101356.97
2019-04-28T19:59:23.896Z,101345.80
2019-04-28T20:04:29.140Z,101343.00
2019-04-28T20:09:34.296Z,101343.98
2019-04-28T20:14:39.470Z,101346.22
2019-04-28T20:19:44.821Z,101354.25
2019-04-28T20:24:50.273Z,101351.73
2019-04-28T20:29:55.600Z,101354.80
2019-04-28T20:35:00.901Z,101353.07
2019-04-28T20:40:08.941Z,101367.48
2019-04-28T20:45:15.915Z,101373.50
2019-04-28T20:50:20.984Z,101376.30
2019-04-28T20:55:26.030Z,101384.03
2019-04-28T21:00:31.335Z,101378.42
2019-04-28T21:05:36.515Z,101382.28
2019-04-28T21:10:41.683Z,101382.80
2019-04-28T21:15:46.865Z,101369.52
2019-04-28T21:20:52.029Z,101376.67
2019-04-28T21:25:57.381Z,101376.05
2019-04-28T21:31:02.723Z,101380.88
2019-04-28T21:36:07.945Z,101369.94
2019-04-28T21:41:14.816Z,101376.09
2019-04-28T21:46:27.792Z,101378.12
2019-04-28T21:51:33.537Z,101383.52
2019-04-28T21:56:38.771Z,101371.89
2019-04-28T22:01:44.372Z,101381.83
2019-04-28T22:06:49.704Z,101388.20
2019-04-28T22:11:54.750Z,101391.94
2019-04-28T22:16:59.920Z,101385.58
2019-04-28T22:22:05.156Z,101392.73
2019-04-28T22:27:12.090Z,101398.38
2019-04-28T22:32:17.576Z,101402.92
2019-04-28T22:37:22.706Z,101398.38
2019-04-28T22:42:28.863Z,101394.88
2019-04-28T22:47:33.969Z,101397.45
2019-04-28T22:52:39.206Z,101397.14
2019-04-28T22:57:46.071Z,101391.33
2019-04-28T23:02:51.449Z,101381.95
2019-04-28T23:07:56.527Z,101390.40
2019-04-28T23:13:01.679Z,101392.17
2019-04-28T23:18:06.961Z,101378.70
2019-04-28T23:23:12.842Z,101392.36
2019-04-28T23:28:18.003Z,101386.19
2019-04-28T23:33:23.301Z,101388.42
2019-04-28T23:38:29.041Z,101391.14
2019-04-28T23:43:34.388Z,101386.55
2019-04-28T23:48:39.481Z,101381.06
2019-04-28T23:54:02.244Z,101380.25
2019-04-28T23:59:07.294Z,101387.90
